createdAt,value
2022-08-16T00:01:11.582Z,21.02
2022-08-16T00:03:38.858Z,21.05
2022-08-16T00:06:07.774Z,21.07
2022-08-16T00:08:37.798Z,21.01
2022-08-16T00:11:06.901Z,20.92
2022-08-16T00:13:41.904Z,21.14
2022-08-16T00:17:00.528Z,21.08
2022-08-16T00:18:56.310Z,20.70
2022-08-16T00:21:26.601Z,20.82
2022-08-16T00:23:56.053Z,20.73
2022-08-16T00:26:35.609Z,20.85
2022-08-16T00:29:05.571Z,20.79
2022-08-16T00:31:59.921Z,20.40
2022-08-16T00:34:22.852Z,20.46
2022-08-16T00:37:10.129Z,20.51
2022-08-16T00:39:36.768Z,20.62
2022-08-16T00:42:05.697Z,20.72
2022-08-16T00:44:38.566Z,20.75
2022-08-16T00:47:12.393Z,20.57
2022-08-16T00:49:44.880Z,20.59
2022-08-16T00:52:30.135Z,20.53
2022-08-16T00:54:59.354Z,20.52
2022-08-16T00:57:27.613Z,20.47
2022-08-16T01:00:19.940Z,20.36
2022-08-16T01:02:48.998Z,20.14
2022-08-16T01:05:16.075Z,20.12
2022-08-16T01:07:51.580Z,20.10
2022-08-16T01:10:32.331Z,20.01
2022-08-16T01:13:27.797Z,19.80
2022-08-16T01:16:02.910Z,19.73
2022-08-16T01:18:59.730Z,19.75
2022-08-16T01:21:33.728Z,19.45
2022-08-16T01:24:52.251Z,19.44
2022-08-16T01:27:18.996Z,19.26
2022-08-16T01:29:59.899Z,19.28
2022-08-16T01:32:33.615Z,19.22
2022-08-16T01:35:17.675Z,19.15
2022-08-16T01:37:53.009Z,19.00
2022-08-16T01:40:25.294Z,19.24
2022-08-16T01:42:55.340Z,19.23
2022-08-16T01:45:23.061Z,19.28
2022-08-16T01:47:51.813Z,19.31
2022-08-16T01:50:42.184Z,19.26
2022-08-16T01:53:10.051Z,19.15
2022-08-16T01:55:40.639Z,19.21
2022-08-16T01:58:07.517Z,19.09
2022-08-16T02:00:37.514Z,19.02
2022-08-16T02:03:05.604Z,19.09
2022-08-16T02:05:32.266Z,19.00
2022-08-16T02:08:02.217Z,18.94
2022-08-16T02:10:28.819Z,18.93
2022-08-16T02:13:00.601Z,18.96
2022-08-16T02:15:29.549Z,18.93
2022-08-16T02:17:59.161Z,18.89
2022-08-16T02:20:32.167Z,18.83
2022-08-16T02:23:01.659Z,18.58
2022-08-16T02:25:47.472Z,18.58
2022-08-16T02:28:19.268Z,18.52
2022-08-16T02:30:50.942Z,18.56
2022-08-16T02:33:20.091Z,18.57
2022-08-16T02:35:58.460Z,18.53
2022-08-16T02:38:28.946Z,18.58
2022-08-16T02:40:59.040Z,18.44
2022-08-16T02:43:27.941Z,18.45
2022-08-16T02:45:55.941Z,18.36
2022-08-16T02:48:29.668Z,18.16
2022-08-16T02:51:06.497Z,18.04
2022-08-16T02:53:43.161Z,18.08
2022-08-16T02:56:14.851Z,18.02
2022-08-16T02:58:44.157Z,17.88
2022-08-16T03:01:25.239Z,17.96
2022-08-16T03:04:39.497Z,17.85
2022-08-16T03:06:50.478Z,17.75
2022-08-16T03:09:22.719Z,17.75
2022-08-16T03:11:49.421Z,17.81
2022-08-16T03:14:21.082Z,17.89
2022-08-16T03:16:59.664Z,17.78
2022-08-16T03:19:46.815Z,17.81
2022-08-16T03:22:19.431Z,17.69
2022-08-16T03:25:01.590Z,17.71
2022-08-16T03:27:31.170Z,17.73
2022-08-16T03:30:16.556Z,17.56
2022-08-16T03:32:51.398Z,17.61
2022-08-16T03:35:20.524Z,17.30
2022-08-16T03:38:02.830Z,17.42
2022-08-16T03:40:33.197Z,17.36
2022-08-16T03:43:20.281Z,17.31
2022-08-16T03:45:47.642Z,17.52
2022-08-16T03:48:14.885Z,17.54
2022-08-16T03:50:41.851Z,17.45
2022-08-16T03:53:27.054Z,17.43
2022-08-16T03:56:07.477Z,17.41
2022-08-16T03:58:36.907Z,17.18
2022-08-16T04:01:05.205Z,17.08
2022-08-16T04:03:32.213Z,17.12
2022-08-16T04:05:59.767Z,17.24
2022-08-16T04:08:31.290Z,17.18
2022-08-16T04:11:01.919Z,17.14
2022-08-16T04:14:00.856Z,17.06
2022-08-16T04:16:26.550Z,17.04
2022-08-16T04:19:01.209Z,16.97
2022-08-16T04:21:33.639Z,16.90
2022-08-16T04:24:02.760Z,16.78
2022-08-16T04:26:30.878Z,16.75
2022-08-16T04:29:16.621Z,16.69
2022-08-16T04:31:56.269Z,16.67
2022-08-16T04:34:28.083Z,16.59
2022-08-16T04:36:56.708Z,16.70
2022-08-16T04:39:37.010Z,16.80
2022-08-16T04:42:17.679Z,16.73
2022-08-16T04:44:54.647Z,16.79
2022-08-16T04:47:31.740Z,16.95
2022-08-16T04:50:00.028Z,17.04
2022-08-16T04:52:34.009Z,17.08
2022-08-16T04:55:15.307Z,17.08
2022-08-16T04:57:42.989Z,17.03
2022-08-16T05:00:32.867Z,16.91
2022-08-16T05:03:07.496Z,16.92
2022-08-16T05:05:55.258Z,17.14
2022-08-16T05:08:29.720Z,17.38
2022-08-16T05:11:05.275Z,18.45
2022-08-16T05:13:40.523Z,19.68
2022-08-16T05:16:16.683Z,20.63
2022-08-16T05:18:50.167Z,21.12
2022-08-16T05:21:16.949Z,21.53
2022-08-16T05:23:55.451Z,22.28
2022-08-16T05:26:27.829Z,22.72
2022-08-16T05:28:56.569Z,22.93
2022-08-16T05:31:29.655Z,22.85
2022-08-16T05:34:00.449Z,23.59
2022-08-16T05:36:33.602Z,23.84
2022-08-16T05:39:02.472Z,23.81
2022-08-16T05:41:29.292Z,23.32
2022-08-16T05:44:01.252Z,22.65
2022-08-16T05:46:33.077Z,22.44
2022-08-16T05:49:09.073Z,23.21
2022-08-16T05:51:40.295Z,22.78
2022-08-16T05:54:11.579Z,22.59
2022-08-16T05:56:42.828Z,22.46
2022-08-16T05:59:10.683Z,21.78
2022-08-16T06:01:39.066Z,21.45
2022-08-16T06:04:13.459Z,22.24
2022-08-16T06:06:56.575Z,23.56
2022-08-16T06:09:25.930Z,24.06
2022-08-16T06:12:10.354Z,24.03
2022-08-16T06:14:37.792Z,24.56
2022-08-16T06:17:07.253Z,24.88
2022-08-16T06:19:34.016Z,25.65
2022-08-16T06:22:02.586Z,25.90
2022-08-16T06:24:54.375Z,25.99
2022-08-16T06:27:16.154Z,26.44
2022-08-16T06:29:44.734Z,26.61
2022-08-16T06:32:27.747Z,26.84
2022-08-16T06:35:02.602Z,26.91
2022-08-16T06:37:37.417Z,26.78
2022-08-16T06:40:12.417Z,26.65
2022-08-16T06:42:47.514Z,26.80
2022-08-16T06:45:15.326Z,27.68
2022-08-16T06:47:53.830Z,27.63
2022-08-16T06:50:28.746Z,27.50
2022-08-16T06:53:00.718Z,27.50
2022-08-16T06:55:33.763Z,27.40
2022-08-16T06:58:01.660Z,27.65
2022-08-16T07:00:34.926Z,27.86
2022-08-16T07:03:26.934Z,27.82
2022-08-16T07:05:53.925Z,27.38
2022-08-16T07:08:21.050Z,28.10
2022-08-16T07:10:48.023Z,27.57
2022-08-16T07:13:26.681Z,28.12
2022-08-16T07:16:03.170Z,28.56
2022-08-16T07:18:29.871Z,28.49
2022-08-16T07:21:01.834Z,28.53
2022-08-16T07:23:37.426Z,28.86
2022-08-16T07:26:10.045Z,28.79
2022-08-16T07:28:38.933Z,28.91
2022-08-16T07:31:13.063Z,29.00
2022-08-16T07:33:51.502Z,29.06
2022-08-16T07:36:21.863Z,28.94
2022-08-16T07:38:49.342Z,28.95
2022-08-16T07:41:17.207Z,28.54
2022-08-16T07:43:44.197Z,28.77
2022-08-16T07:46:39.013Z,29.16
2022-08-16T07:49:02.558Z,29.52
2022-08-16T07:51:33.160Z,28.95
2022-08-16T07:54:09.370Z,29.23
2022-08-16T07:56:38.183Z,29.35
2022-08-16T07:59:06.863Z,29.41
2022-08-16T08:01:34.757Z,29.39
2022-08-16T08:04:03.868Z,29.17
2022-08-16T08:06:32.885Z,29.54
2022-08-16T08:09:00.425Z,29.56
2022-08-16T08:11:29.178Z,30.13
2022-08-16T08:14:03.149Z,29.90
2022-08-16T08:16:32.096Z,29.54
2022-08-16T08:19:02.399Z,30.31
2022-08-16T08:21:58.373Z,30.04
2022-08-16T08:24:20.921Z,30.06
2022-08-16T08:26:50.007Z,30.39
2022-08-16T08:29:22.641Z,30.63
2022-08-16T08:31:49.908Z,30.42
2022-08-16T08:34:18.674Z,29.83
2022-08-16T08:36:45.379Z,29.43
2022-08-16T08:39:12.926Z,29.27
2022-08-16T08:41:42.308Z,29.05
2022-08-16T08:44:27.971Z,29.40
2022-08-16T08:47:00.605Z,30.05
2022-08-16T08:49:46.258Z,30.62
2022-08-16T08:52:34.775Z,30.05
2022-08-16T08:55:10.318Z,28.98
2022-08-16T08:57:37.811Z,28.78
2022-08-16T09:00:12.920Z,29.16
2022-08-16T09:02:43.070Z,29.97
2022-08-16T09:05:15.649Z,30.42
2022-08-16T09:08:00.312Z,30.87
2022-08-16T09:10:30.951Z,30.88
2022-08-16T09:12:59.144Z,30.83
2022-08-16T09:15:33.259Z,30.98
2022-08-16T09:18:24.596Z,30.58
2022-08-16T09:20:59.390Z,30.22
2022-08-16T09:23:29.287Z,30.17
2022-08-16T09:25:55.927Z,30.42
2022-08-16T09:29:06.747Z,29.93
2022-08-16T09:31:11.427Z,29.51
2022-08-16T09:33:39.783Z,30.09
2022-08-16T09:36:12.336Z,28.92
2022-08-16T09:38:59.575Z,28.69
2022-08-16T09:41:27.015Z,29.84
2022-08-16T09:43:59.687Z,30.47
2022-08-16T09:46:33.364Z,31.07
2022-08-16T09:49:14.157Z,29.89
2022-08-16T09:51:42.416Z,30.56
2022-08-16T09:54:17.123Z,30.90
2022-08-16T09:56:53.012Z,31.40
2022-08-16T09:59:22.614Z,31.06
2022-08-16T10:01:51.633Z,31.49
2022-08-16T10:04:29.662Z,31.55
2022-08-16T10:09:45.165Z,31.92
2022-08-16T10:12:34.126Z,31.96
2022-08-16T10:15:00.830Z,31.51
2022-08-16T10:17:28.808Z,30.28
2022-08-16T10:19:55.593Z,30.30
2022-08-16T10:22:23.048Z,29.70
2022-08-16T10:24:55.561Z,30.18
2022-08-16T10:27:29.974Z,31.00
2022-08-16T10:30:26.174Z,30.08
2022-08-16T10:32:55.633Z,29.57
2022-08-16T10:35:22.908Z,29.46
2022-08-16T10:37:50.391Z,29.47
2022-08-16T10:40:29.693Z,29.27
2022-08-16T10:43:00.519Z,29.85
2022-08-16T10:45:37.040Z,30.13
2022-08-16T10:48:28.147Z,30.58
2022-08-16T10:50:53.438Z,29.58
2022-08-16T10:53:20.023Z,30.83
2022-08-16T10:55:48.404Z,31.13
2022-08-16T10:58:34.648Z,30.86
2022-08-16T11:03:54.636Z,30.77
2022-08-16T11:06:26.948Z,31.25
2022-08-16T11:14:30.500Z,30.69
2022-08-16T11:17:09.046Z,30.06
2022-08-16T11:20:00.671Z,30.04
2022-08-16T11:22:42.175Z,30.16
2022-08-16T11:25:12.141Z,29.79
2022-08-16T11:27:39.467Z,29.63
2022-08-16T11:30:12.238Z,29.82
2022-08-16T11:32:46.507Z,29.88
2022-08-16T11:35:18.675Z,29.52
2022-08-16T11:38:47.236Z,30.43
2022-08-16T11:41:00.313Z,29.86
2022-08-16T11:43:30.226Z,30.00
2022-08-16T11:46:01.419Z,30.47
2022-08-16T11:48:46.667Z,30.73
2022-08-16T11:51:13.534Z,30.44
2022-08-16T11:53:40.733Z,30.75
2022-08-16T11:56:07.464Z,30.77
2022-08-16T11:58:37.372Z,30.73
2022-08-16T12:01:06.380Z,30.17
2022-08-16T12:03:37.301Z,29.94
2022-08-16T12:06:25.181Z,30.18
2022-08-16T12:08:57.515Z,30.36
2022-08-16T12:11:28.146Z,30.07
2022-08-16T12:13:59.723Z,30.05
2022-08-16T12:16:31.315Z,30.11
2022-08-16T12:19:05.485Z,29.94
2022-08-16T12:21:57.530Z,30.57
2022-08-16T12:24:19.588Z,30.57
2022-08-16T12:26:46.437Z,30.62
2022-08-16T12:29:13.064Z,30.21
2022-08-16T12:32:01.414Z,29.78
2022-08-16T12:34:28.969Z,29.84
2022-08-16T12:36:55.942Z,30.37
2022-08-16T12:39:22.618Z,30.56
2022-08-16T12:41:49.842Z,30.45
2022-08-16T12:44:19.744Z,30.50
2022-08-16T12:47:06.508Z,30.71
2022-08-16T12:49:33.223Z,30.57
2022-08-16T12:52:09.181Z,30.90
2022-08-16T12:54:37.458Z,30.72
2022-08-16T12:57:14.148Z,30.67
2022-08-16T12:59:42.094Z,30.68
2022-08-16T13:02:12.435Z,30.85
2022-08-16T13:04:50.187Z,30.58
2022-08-16T13:07:18.189Z,30.98
2022-08-16T13:09:58.362Z,31.52
2022-08-16T13:12:27.973Z,31.13
2022-08-16T13:14:55.978Z,30.71
2022-08-16T13:17:26.471Z,30.85
2022-08-16T13:20:07.260Z,30.55
2022-08-16T13:22:42.324Z,30.63
2022-08-16T13:25:13.981Z,30.50
2022-08-16T13:28:03.173Z,30.37
2022-08-16T13:30:37.076Z,30.04
2022-08-16T13:33:10.800Z,30.20
2022-08-16T13:35:43.187Z,29.83
2022-08-16T13:38:24.236Z,29.77
2022-08-16T13:40:51.923Z,29.65
2022-08-16T13:43:19.674Z,29.85
2022-08-16T13:45:50.431Z,29.76
2022-08-16T13:48:21.902Z,29.92
2022-08-16T13:50:56.318Z,29.98
2022-08-16T13:53:25.023Z,30.31
2022-08-16T13:55:58.642Z,30.08
2022-08-16T13:58:36.571Z,30.29
2022-08-16T14:01:09.712Z,30.39
2022-08-16T14:03:40.245Z,30.32
2022-08-16T14:06:10.878Z,30.22
2022-08-16T14:08:42.181Z,29.79
2022-08-16T14:11:11.883Z,30.55
2022-08-16T14:13:39.722Z,30.54
2022-08-16T14:16:23.566Z,30.21
2022-08-16T14:18:52.656Z,29.97
2022-08-16T14:21:23.589Z,29.66
2022-08-16T14:23:52.076Z,29.87
2022-08-16T14:26:21.187Z,29.86
2022-08-16T14:28:50.451Z,30.50
2022-08-16T14:31:18.468Z,29.97
2022-08-16T14:33:45.622Z,30.32
2022-08-16T14:36:18.500Z,30.45
2022-08-16T14:38:51.822Z,30.55
2022-08-16T14:41:18.703Z,30.30
2022-08-16T14:43:45.357Z,30.22
2022-08-16T14:46:12.117Z,30.10
2022-08-16T14:48:39.119Z,30.17
2022-08-16T14:51:05.952Z,29.63
2022-08-16T14:53:33.532Z,30.08
2022-08-16T14:56:00.654Z,30.37
2022-08-16T14:58:34.857Z,30.41
2022-08-16T15:01:03.537Z,30.45
2022-08-16T15:03:30.267Z,30.39
2022-08-16T15:06:00.511Z,30.52
2022-08-16T15:08:36.805Z,30.24
2022-08-16T15:11:05.424Z,30.20
2022-08-16T15:13:32.352Z,30.29
2022-08-16T15:16:02.556Z,30.31
2022-08-16T15:18:31.933Z,30.52
2022-08-16T15:21:04.286Z,30.59
2022-08-16T15:23:33.956Z,30.79
2022-08-16T15:26:03.876Z,30.53
2022-08-16T15:28:32.718Z,30.59
2022-08-16T15:31:06.250Z,30.26
2022-08-16T15:33:39.221Z,30.15
2022-08-16T15:36:12.255Z,30.18
2022-08-16T15:39:02.748Z,30.01
2022-08-16T15:41:48.644Z,30.30
2022-08-16T15:44:22.136Z,30.45
2022-08-16T15:46:56.618Z,30.56
2022-08-16T15:49:37.296Z,30.75
2022-08-16T15:52:16.157Z,30.46
2022-08-16T15:54:52.984Z,30.59
2022-08-16T15:57:24.406Z,30.77
2022-08-16T15:59:56.427Z,30.34
2022-08-16T16:02:33.499Z,30.29
2022-08-16T16:05:04.398Z,30.44
2022-08-16T16:07:33.425Z,30.47
2022-08-16T16:10:03.791Z,30.38
2022-08-16T16:12:53.449Z,30.15
2022-08-16T16:15:20.343Z,30.12
2022-08-16T16:17:51.002Z,29.99
2022-08-16T16:20:20.333Z,29.83
2022-08-16T16:22:49.937Z,29.86
2022-08-16T16:25:17.637Z,29.83
2022-08-16T16:27:45.330Z,29.92
2022-08-16T16:30:37.875Z,29.92
2022-08-16T16:33:02.337Z,29.77
2022-08-16T16:35:32.637Z,29.64
2022-08-16T16:37:59.967Z,29.60
2022-08-16T16:40:32.480Z,29.65
2022-08-16T16:43:00.282Z,29.82
2022-08-16T16:45:34.710Z,29.63
2022-08-16T16:48:11.840Z,29.63
2022-08-16T16:50:44.407Z,29.59
2022-08-16T16:53:16.747Z,29.44
2022-08-16T16:55:43.821Z,28.97
2022-08-16T16:58:38.375Z,29.32
2022-08-16T17:01:05.730Z,29.09
2022-08-16T17:03:33.893Z,29.08
2022-08-16T17:06:02.798Z,29.11
2022-08-16T17:08:37.811Z,29.05
2022-08-16T17:11:08.154Z,28.94
2022-08-16T17:13:35.205Z,28.92
2022-08-16T17:16:04.456Z,28.82
2022-08-16T17:19:16.793Z,28.75
2022-08-16T17:21:18.939Z,28.61
2022-08-16T17:23:58.257Z,28.55
2022-08-16T17:26:30.255Z,28.50
2022-08-16T17:29:02.422Z,28.11
2022-08-16T17:31:41.150Z,28.25
2022-08-16T17:34:29.362Z,28.13
2022-08-16T17:36:59.782Z,28.03
2022-08-16T17:39:29.549Z,27.90
2022-08-16T17:42:00.956Z,27.74
2022-08-16T17:44:27.801Z,27.27
2022-08-16T17:46:54.527Z,27.49
2022-08-16T17:49:21.817Z,27.39
2022-08-16T17:51:48.877Z,27.22
2022-08-16T17:54:29.758Z,27.20
2022-08-16T17:57:00.528Z,27.17
2022-08-16T17:59:28.602Z,27.13
2022-08-16T18:01:56.108Z,27.15
2022-08-16T18:04:49.120Z,27.08
2022-08-16T18:07:11.294Z,26.94
2022-08-16T18:09:40.973Z,26.84
2022-08-16T18:12:54.238Z,26.76
2022-08-16T18:15:08.090Z,26.70
2022-08-16T18:17:34.893Z,26.60
2022-08-16T18:20:01.824Z,26.57
2022-08-16T18:22:33.793Z,26.53
2022-08-16T18:25:00.960Z,26.35
2022-08-16T18:27:29.711Z,26.27
2022-08-16T18:29:56.349Z,26.17
2022-08-16T18:32:25.134Z,26.04
2022-08-16T18:34:54.624Z,26.12
2022-08-16T18:37:25.141Z,26.15
2022-08-16T18:39:52.196Z,26.09
2022-08-16T18:42:18.885Z,25.99
2022-08-16T18:44:46.105Z,25.78
2022-08-16T18:47:12.733Z,25.63
2022-08-16T18:49:39.449Z,25.42
2022-08-16T18:52:06.336Z,25.38
2022-08-16T18:54:34.258Z,25.07
2022-08-16T18:57:20.857Z,25.02
2022-08-16T18:59:47.560Z,25.05
2022-08-16T19:02:43.015Z,24.96
2022-08-16T19:05:14.200Z,24.87
2022-08-16T19:07:41.130Z,24.80
2022-08-16T19:10:08.680Z,24.73
2022-08-16T19:12:38.272Z,24.73
2022-08-16T19:15:13.731Z,24.71
2022-08-16T19:17:41.413Z,24.74
2022-08-16T19:20:10.741Z,24.57
2022-08-16T19:23:02.340Z,24.31
2022-08-16T19:25:46.308Z,24.38
2022-08-16T19:28:49.051Z,24.22
2022-08-16T19:31:02.790Z,24.19
2022-08-16T19:33:30.174Z,24.19
2022-08-16T19:35:56.795Z,24.19
2022-08-16T19:38:23.453Z,24.17
2022-08-16T19:40:50.544Z,23.85
2022-08-16T19:43:17.448Z,23.70
2022-08-16T19:45:46.354Z,23.66
2022-08-16T19:48:13.122Z,23.52
2022-08-16T19:50:39.938Z,23.48
2022-08-16T19:53:13.111Z,23.59
2022-08-16T19:55:47.222Z,23.39
2022-08-16T19:58:18.465Z,23.21
2022-08-16T20:00:47.126Z,23.09
2022-08-16T20:03:21.500Z,23.14
2022-08-16T20:05:50.464Z,23.15
2022-08-16T20:08:18.655Z,23.27
2022-08-16T20:10:47.051Z,23.18
2022-08-16T20:13:23.259Z,23.11
2022-08-16T20:15:50.690Z,22.90
2022-08-16T20:18:25.102Z,22.78
2022-08-16T20:20:52.952Z,22.74
2022-08-16T20:23:24.570Z,22.77
2022-08-16T20:25:55.984Z,22.77
2022-08-16T20:28:39.396Z,22.59
2022-08-16T20:31:11.520Z,22.58
2022-08-16T20:33:38.161Z,22.52
2022-08-16T20:36:04.881Z,22.34
2022-08-16T20:38:31.683Z,22.38
2022-08-16T20:40:58.358Z,22.34
2022-08-16T20:43:24.933Z,22.11
2022-08-16T20:45:51.558Z,21.97
2022-08-16T20:48:18.340Z,22.07
2022-08-16T20:50:45.310Z,22.04
2022-08-16T20:53:12.158Z,21.96
2022-08-16T20:55:40.430Z,22.02
2022-08-16T20:58:07.335Z,21.83
2022-08-16T21:00:33.999Z,21.84
2022-08-16T21:03:06.167Z,21.80
2022-08-16T21:05:34.197Z,21.72
2022-08-16T21:08:01.199Z,21.65
2022-08-16T21:10:27.938Z,21.54
2022-08-16T21:13:02.859Z,21.47
2022-08-16T21:15:32.293Z,21.31
2022-08-16T21:18:00.405Z,21.34
2022-08-16T21:20:28.065Z,21.38
2022-08-16T21:23:02.025Z,21.12
2022-08-16T21:25:29.131Z,21.18
2022-08-16T21:28:39.106Z,21.16
2022-08-16T21:30:44.518Z,20.98
2022-08-16T21:33:17.009Z,21.09
2022-08-16T21:35:46.956Z,21.10
2022-08-16T21:38:29.320Z,20.90
2022-08-16T21:41:01.635Z,20.87
2022-08-16T21:43:32.207Z,20.52
2022-08-16T21:46:03.414Z,20.50
2022-08-16T21:48:33.629Z,20.56
2022-08-16T21:51:07.362Z,20.45
2022-08-16T21:53:34.840Z,20.30
2022-08-16T21:56:02.530Z,20.24
2022-08-16T21:58:30.401Z,20.33
2022-08-16T22:00:57.537Z,20.11
2022-08-16T22:03:24.721Z,20.30
2022-08-16T22:05:59.983Z,20.49
2022-08-16T22:08:48.087Z,20.31
2022-08-16T22:11:17.206Z,20.19
2022-08-16T22:13:51.218Z,20.06
2022-08-16T22:16:26.351Z,20.06
2022-08-16T22:18:53.068Z,20.11
2022-08-16T22:21:20.323Z,20.04
2022-08-16T22:23:57.356Z,20.08
2022-08-16T22:26:34.073Z,19.85
2022-08-16T22:29:09.620Z,19.96
2022-08-16T22:31:37.787Z,19.96
2022-08-16T22:34:04.792Z,19.64
2022-08-16T22:36:32.950Z,19.84
2022-08-16T22:39:02.888Z,19.98
2022-08-16T22:41:31.999Z,19.75
2022-08-16T22:43:59.529Z,19.66
2022-08-16T22:46:26.663Z,19.72
2022-08-16T22:48:54.270Z,19.74
2022-08-16T22:51:23.528Z,19.54
2022-08-16T22:53:50.927Z,19.45
2022-08-16T22:56:17.971Z,19.36
2022-08-16T22:58:46.280Z,19.22
2022-08-16T23:01:15.164Z,19.10
2022-08-16T23:03:42.377Z,19.17
2022-08-16T23:06:10.571Z,19.20
2022-08-16T23:08:40.795Z,19.32
2022-08-16T23:11:10.647Z,19.12
2022-08-16T23:13:37.807Z,19.04
2022-08-16T23:16:20.622Z,19.15
2022-08-16T23:18:49.531Z,19.02
2022-08-16T23:21:17.650Z,19.06
2022-08-16T23:26:43.761Z,18.97
2022-08-16T23:29:04.395Z,18.98
2022-08-16T23:31:32.683Z,18.69
2022-08-16T23:34:00.394Z,18.68
2022-08-16T23:36:27.008Z,18.52
2022-08-16T23:38:53.745Z,18.62
2022-08-16T23:41:20.415Z,18.46
2022-08-16T23:43:47.135Z,18.59
2022-08-16T23:46:17.981Z,18.62
2022-08-16T23:49:55.847Z,18.25
2022-08-16T23:51:32.573Z,18.19
2022-08-16T23:54:00.114Z,18.45
2022-08-16T23:56:26.753Z,18.52
2022-08-16T23:59:02.954Z,18.36
